Wynantskill, New York
Current Conditions -  °F | °C
As of 6:51 PM on Friday 24 Oct 2014 (Local Time) from KALB Reporting Station
Overcast Overcast  
Wind Chill: 43°   Ceiling: 6000
Heat Index: 47°   Visibility: 10mi
Dew Point: 44°   Wind: 8mph
Humidity: 90%   Direction: 30°NNE
Pressure: 29.84"   Gusts: NA
Location:  42.69°N, 73.64°W
Report Text: KALB 242251Z 03007KT 10SM FEW008 SCT035 OVC060 08/07 A2984 RMK AO2 SLP106 T00830067 $
Loading
Personal Weather Stations






























Interactive Weather Map
Tropical Storm Tracking
New forecast layout! Learn more

10-Day Weather Forecast

Advertisements
Track Severe Weather on mobile